• Join FlightAware (Why Join?)
  • Login
  • US Flag 
01:58AM EDT


 

Airport Tracker/Info


-or-


 

Live Flight TrackerFlight Track Log ✈ EJA641 ✈ 25-Apr-2013 ✈ KBED - KJAX

Flight Track Log - Related Links

Times and Time Zones

All times are in EDT time to prevent confusion due to time zone crossing. See the EJA641 flight status page for this flight to view local times or setup timezone preferences in your user account.

Time Position Orientation Groundspeed Altitude Reporting Facility
EDT Latitude Longitude Course Direction KTS MPH feet Rate Location/Type
09:52AM 42.4667 -71.3167 216° Southwest 168 193 1,300  Level KA90
09:53AM 42.4333 -71.3500 216° Southwest 206 237 2,300 2,400 Climbing KA90
09:54AM 42.3833 -71.3333 166° South 233 268 5,700 3,060 Climbing KA90
09:55AM 42.3067 -71.2583 144° Southeast 258 297 10,200 2,880 Climbing Boston Center
09:56AM 42.2433 -71.1864 140° Southeast 271 312 13,100 3,060 Climbing Boston Center
09:57AM 42.1822 -71.1206 141° Southeast 283 326 16,400 2,820 Climbing Boston Center
09:58AM 42.1167 -71.0519 142° Southeast 283 326 18,800 2,400 Climbing Boston Center
09:59AM 42.0492 -70.9778 141° Southeast 297 342 21,200 2,340 Climbing Boston Center
10:00AM 41.9794 -70.9069 143° Southeast 309 356 23,500 2,220 Climbing Boston Center
10:01AM 41.9075 -70.8222 139° Southeast 328 377 25,700 1,980 Climbing Boston Center
10:02AM 41.8275 -70.7742 156° South 333 383 27,500 1,800 Climbing Boston Center
10:03AM 41.7467 -70.8067 197° South 269 310 29,400 1,680 Climbing Boston Center
10:04AM 41.6892 -70.8639 217° Southwest 287 330 30,900 1,200 Climbing Boston Center
10:05AM 41.6189 -70.9183 210° Southwest 287 330 31,800 840 Climbing Boston Center
10:06AM 41.5469 -70.9783 212° Southwest 305 351 32,600 660 Climbing Boston Center
10:07AM 41.4997 -71.0486 228° Southwest 311 358 33,200 900 Climbing Boston Center
10:08AM 41.4322 -71.1581 231° Southwest 323 372 34,400 1,080 Climbing Boston Center
10:09AM 41.3772 -71.2506 232° Southwest 323 372 35,400 900 Climbing Boston Center
10:10AM 41.3197 -71.3372 229° Southwest 323 372 36,300 840 Climbing Boston Center
10:11AM 41.2664 -71.4294 232° Southwest 323 372 37,100 780 Climbing Boston Center
10:12AM 41.2086 -71.5214 230° Southwest 323 372 37,900 780 Climbing Boston Center
10:13AM 41.1447 -71.6078 226° Southwest 318 366 38,700 780 Climbing Boston Center
10:14AM 41.0892 -71.6964 230° Southwest 318 366 39,500 600 Climbing Boston Center
10:15AM 41.0356 -71.7825 230° Southwest 318 366 40,000 240 Climbing Boston Center
10:16AM 40.9922 -71.8764 239° Southwest 324 373 40,000  Level Boston Center
10:17AM 40.9281 -71.9622 225° Southwest 329 379 40,000  Level Boston Center
10:18AM 40.8681 -72.0558 230° Southwest 335 386 40,000  Level Boston Center
10:19AM 40.8100 -72.1494 231° Southwest 335 386 40,000  Level Boston Center
10:20AM 40.7497 -72.2456 230° Southwest 335 386 40,000  Level Boston Center
10:21AM 40.6853 -72.3333 226° Southwest 335 386 40,000  Level Boston Center
10:22AM 40.6247 -72.4264 229° Southwest 335 386 40,000  Level Boston Center
10:23AM 40.5664 -72.5192 230° Southwest 335 386 40,000  Level Boston Center
10:24AM 40.5039 -72.6147 229° Southwest 335 386 40,000  Level Boston Center
10:25AM 40.4475 -72.7100 232° Southwest 335 386 40,000  Level Boston Center
10:26AM 40.3764 -72.8242 231° Southwest 335 386 40,000  Level Boston Center
10:27AM 40.3156 -72.9164 229° Southwest 335 386 40,000  Level Boston Center
10:28AM 40.2525 -73.0083 228° Southwest 335 386 40,000  Level Boston Center
10:31AM 40.1211 -73.2175 231° Southwest 336 387 40,000  Level Washington Center
10:32AM 40.0564 -73.3092 227° Southwest 341 392 40,000  Level Washington Center
10:33AM 39.9828 -73.3875 219° Southwest 346 398 40,000  Level Washington Center
10:34AM 39.9011 -73.4764 220° Southwest 346 398 40,000  Level Washington Center
10:35AM 39.8294 -73.5544 220° Southwest 351 404 40,000  Level Washington Center
10:36AM 39.7578 -73.6347 221° Southwest 346 398 40,000  Level Washington Center
10:37AM 39.6861 -73.7147 221° Southwest 351 404 40,000  Level Washington Center
10:38AM 39.6144 -73.7947 221° Southwest 351 404 40,000  Level Washington Center
10:39AM 39.5428 -73.8747 221° Southwest 351 404 40,000  Level Washington Center
10:40AM 39.4708 -73.9517 220° Southwest 345 397 40,000  Level Washington Center
10:41AM 39.4011 -74.0283 220° Southwest 345 397 40,000  Level Washington Center
10:42AM 39.3292 -74.1078 221° Southwest 345 397 40,000  Level Washington Center
10:43AM 39.2553 -74.1897 221° Southwest 350 403 40,000  Level Washington Center
10:44AM 39.1853 -74.2661 220° Southwest 350 403 40,000  Level Washington Center
10:45AM 39.1089 -74.3478 220° Southwest 350 403 40,000  Level Washington Center
10:46AM 39.0389 -74.4211 219° Southwest 350 403 40,000  Level Washington Center
10:47AM 38.9644 -74.5050 221° Southwest 350 403 40,000  Level Washington Center
10:48AM 38.8922 -74.5808 219° Southwest 350 403 40,000  Level Washington Center
10:49AM 38.8178 -74.6617 220° Southwest 350 403 40,000  Level Washington Center
10:50AM 38.7456 -74.7400 220° Southwest 350 403 40,000  Level Washington Center
10:51AM 38.6731 -74.8206 221° Southwest 350 403 40,000  Level Washington Center
10:52AM 38.6006 -74.8903 217° Southwest 350 403 40,000  Level Washington Center
10:53AM 38.5281 -74.9706 221° Southwest 350 403 40,000  Level Washington Center
10:54AM 38.4533 -75.0456 218° Southwest 350 403 40,000  Level Washington Center
10:55AM 38.3786 -75.1228 219° Southwest 350 403 40,000  Level Washington Center
10:56AM 38.3017 -75.1922 215° Southwest 344 396 40,000  Level Washington Center
10:57AM 38.2228 -75.2614 215° Southwest 344 396 40,000  Level Washington Center
10:58AM 38.1417 -75.3303 214° Southwest 350 403 40,000  Level Washington Center
10:59AM 38.0583 -75.3992 213° Southwest 355 409 40,000  Level Washington Center
11:00AM 37.9792 -75.4681 214° Southwest 355 409 40,000  Level Washington Center
11:01AM 37.8978 -75.5339 213° Southwest 355 409 40,000  Level Washington Center
11:02AM 37.8144 -75.5997 212° Southwest 350 403 40,000  Level Washington Center
11:03AM 37.7311 -75.6681 213° Southwest 355 409 40,000  Level Washington Center
11:04AM 37.6494 -75.7361 213° Southwest 355 409 40,000  Level Washington Center
11:05AM 37.5661 -75.8092 215° Southwest 355 409 40,000  Level Washington Center
11:06AM 37.4825 -75.8772 213° Southwest 355 409 40,000  Level Washington Center
11:07AM 37.4008 -75.9447 213° Southwest 355 409 40,000  Level Washington Center
11:08AM 37.3214 -76.0122 214° Southwest 350 403 40,000  Level Washington Center
11:09AM 37.2378 -76.0772 212° Southwest 350 403 40,000  Level Washington Center
11:10AM 37.1542 -76.1469 214° Southwest 350 403 40,000  Level Washington Center
11:11AM 37.0683 -76.2114 211° Southwest 355 409 40,000  Level Washington Center
11:12AM 36.9864 -76.2758 212° Southwest 355 409 40,000  Level Washington Center
11:13AM 36.9047 -76.3425 213° Southwest 355 409 40,000 1,500 Level Washington Center
11:14AM 36.8231 -76.4092 213° Southwest 355 409 43,000  Climbing Washington Center
11:15AM 36.7411 -76.4758 213° Southwest 355 409 40,000 -1,500 Descending Washington Center
11:16AM 36.6656 -76.5397 214° Southwest 355 409 40,000  Level Washington Center
11:17AM 36.5836 -76.6086 214° Southwest 355 409 40,000  Level Washington Center
11:18AM 36.4997 -76.6694 210° Southwest 350 403 40,000  Level Washington Center
11:19AM 36.4178 -76.7356 213° Southwest 350 403 40,000 120 Level Washington Center
11:20AM 36.3356 -76.8039 214° Southwest 350 403 40,300 360 Climbing Washington Center
11:21AM 36.2536 -76.8669 212° Southwest 350 403 40,800 420 Climbing Washington Center
11:22AM 36.1694 -76.9300 211° Southwest 355 409 41,200 420 Climbing Washington Center
11:23AM 36.0894 -76.9981 215° Southwest 355 409 41,700 420 Climbing Washington Center
11:24AM 36.0072 -77.0633 213° Southwest 355 409 42,100 420 Climbing Washington Center
11:25AM 35.9231 -77.1283 212° Southwest 355 409 42,600 420 Climbing Washington Center
11:26AM 35.8428 -77.1908 212° Southwest 350 403 43,000 180 Climbing Washington Center
11:27AM 35.7628 -77.2583 214° Southwest 350 403 43,000  Level Washington Center
11:28AM 35.6761 -77.3206 210° Southwest 355 409 43,000  Level Washington Center
11:29AM 35.5917 -77.3878 213° Southwest 355 409 43,000  Level Washington Center
11:30AM 35.5053 -77.4572 213° Southwest 360 414 43,000  Level Washington Center
11:31AM 35.4164 -77.5239 211° Southwest 366 421 43,000  Level Washington Center
11:32AM 35.3319 -77.5958 215° Southwest 371 427 43,000  Level Washington Center
11:33AM 35.2553 -77.6753 220° Southwest 371 427 43,000  Level Washington Center
11:34AM 35.1789 -77.7544 220° Southwest 365 420 43,000  Level Washington Center
11:35AM 35.1000 -77.8361 220° Southwest 365 420 43,000  Level Washington Center
11:36AM 35.0236 -77.9153 220° Southwest 365 420 43,000  Level Washington Center
11:37AM 34.9469 -77.9942 220° Southwest 365 420 43,000 -3,840 Level Washington Center
11:39AM 34.7583 -78.1875 220° Southwest 371 427 30,000 -660 Descending Jacksonville Center
11:40AM 34.6883 -78.2672 223° Southwest 371 427 40,800 5,100 Climbing Jacksonville Center
11:41AM 34.6078 -78.3497 220° Southwest 371 427 40,300 -420 Descending Jacksonville Center
11:42AM 34.5333 -78.4217 219° Southwest 371 427 40,000 -180 Descending Jacksonville Center
11:43AM 34.4608 -78.4958 220° Southwest 366 421 40,000  Level Jacksonville Center
11:44AM 34.3842 -78.5753 221° Southwest 366 421 40,000  Level Jacksonville Center
11:45AM 34.3056 -78.6519 219° Southwest 366 421 40,000 -300 Level Jacksonville Center
11:46AM 34.2308 -78.7258 219° Southwest 361 415 39,400 -1,020 Descending Jacksonville Center
11:47AM 34.1561 -78.8022 220° Southwest 361 415 38,000 -1,380 Descending Jacksonville Center
11:48AM 34.0814 -78.8761 219° Southwest 361 415 36,700 -1,200 Descending Jacksonville Center
11:49AM 34.0025 -78.9547 220° Southwest 366 421 35,700 -1,020 Descending Jacksonville Center
11:50AM 33.9233 -79.0308 219° Southwest 366 421 34,700 -900 Descending Jacksonville Center
11:51AM 33.8464 -79.1092 220° Southwest 366 421 34,000 -360 Descending Jacksonville Center
11:52AM 33.7653 -79.1853 218° Southwest 371 427 34,000  Level Jacksonville Center
11:53AM 33.6842 -79.2686 221° Southwest 365 420 34,000  Level Jacksonville Center
11:54AM 33.6031 -79.3467 219° Southwest 365 420 34,000 -60 Level Jacksonville Center
11:55AM 33.5217 -79.4272 220° Southwest 376 433 33,900  Descending Jacksonville Center
11:56AM 33.4425 -79.5050 219° Southwest 376 433 34,000  Climbing Jacksonville Center
11:57AM 33.3631 -79.5850 220° Southwest 376 433 34,000  Level Jacksonville Center
11:58AM 33.2836 -79.6600 218° Southwest 370 426 34,000  Level Jacksonville Center
11:59AM 33.2003 -79.7425 220° Southwest 375 432 34,000 -60 Level Jacksonville Center
12:00PM 33.1186 -79.8197 218° Southwest 380 437 33,900 -360 Descending Jacksonville Center
12:01PM 33.0392 -79.8992 220° Southwest 380 437 33,300 -1,380 Descending Jacksonville Center
12:02PM 32.9556 -79.9789 219° Southwest 386 444 31,200 -1,680 Descending Jacksonville Center
12:03PM 32.8694 -80.0558 217° Southwest 386 444 30,000 -600 Descending Jacksonville Center
12:04PM 32.7814 -80.1253 214° Southwest 391 450 30,000  Level Jacksonville Center
12:05PM 32.6911 -80.1972 214° Southwest 391 450 30,000  Level Jacksonville Center
12:06PM 32.6028 -80.2664 213° Southwest 391 450 30,000  Level Jacksonville Center
12:07PM 32.5122 -80.3356 213° Southwest 391 450 30,000  Level Jacksonville Center
12:08PM 32.4197 -80.4069 213° Southwest 391 450 30,000  Level Jacksonville Center
12:09PM 32.3272 -80.4783 213° Southwest 396 456 30,000  Level Jacksonville Center
12:10PM 32.2367 -80.5494 214° Southwest 396 456 30,000  Level Jacksonville Center
12:11PM 32.1461 -80.6206 214° Southwest 389 448 30,000  Level Jacksonville Center
12:12PM 32.0556 -80.6889 213° Southwest 396 456 30,000 -660 Level Jacksonville Center
12:13PM 31.9731 -80.7522 213° Southwest 396 456 28,700 -1,800 Descending Jacksonville Center
12:14PM 31.8678 -80.8303 212° Southwest 401 461 26,400 -1,980 Descending Jacksonville Center
12:15PM 31.7750 -80.9008 213° Southwest 413 475 24,800 -1,560 Descending Jacksonville Center
12:16PM 31.6925 -80.9661 214° Southwest 407 468 23,300 -1,740 Descending Jacksonville Center
12:17PM 31.5914 -81.0389 212° Southwest 401 461 21,400 -2,040 Descending Jacksonville Center
12:18PM 31.5108 -81.0992 213° Southwest 389 448 19,300 -1,800 Descending Jacksonville Center
12:19PM 31.4178 -81.1714 214° Southwest 383 441 17,800 -1,500 Descending Jacksonville Center
12:20PM 31.3394 -81.2336 214° Southwest 383 441 16,300 -1,740 Descending Jacksonville Center
12:21PM 31.2567 -81.2958 213° Southwest 376 433 14,400 -2,160 Descending Jacksonville Center
12:21PM 31.2214 -81.3183 209° Southwest 354 407 13,600 -1,920 Descending Jacksonville Center
12:22PM 31.1739 -81.3556 214° Southwest 364 419 12,500 -1,920 Descending Jacksonville Center
12:22PM 31.1386 -81.3803 211° Southwest 353 406 11,700 -1,920 Descending Jacksonville Center
12:23PM 31.0911 -81.4200 216° Southwest 364 419 10,600 -1,620 Descending Jacksonville Center
12:23PM 31.0558 -81.4422 208° Southwest 351 404 10,100 -600 Descending Jacksonville Center
12:24PM 31.0125 -81.4842 220° Southwest 364 419 10,000 -120 Descending Jacksonville Center
12:24PM 30.9814 -81.5139 219° Southwest 337 388 10,000  Level Jacksonville Center
12:25PM 30.9381 -81.5556 220° Southwest 358 412 10,000 -840 Level Jacksonville Center
12:25PM 30.9050 -81.5850 217° Southwest 313 360 9,200 -1,920 Descending Jacksonville Center
12:26PM 30.8719 -81.6169 220° Southwest 336 387 8,100 -2,160 Descending Jacksonville Center
12:26PM 30.8469 -81.6392 217° Southwest 272 313 7,000 -2,400 Descending Jacksonville Center
12:27PM 30.8203 -81.6711 226° Southwest 294 338 5,700 -2,700 Descending Jacksonville Center
12:27PM 30.7997 -81.7003 231° Southwest 245 282 4,300 -2,820 Descending Jacksonville Center
12:28PM 30.7728 -81.7297 223° Southwest 264 304 2,900 -2,220 Descending Jacksonville Center
12:28PM 30.7458 -81.7517 215° Southwest 252 290 2,100 -900 Descending Jacksonville Center
12:29PM 30.7189 -81.7761 218° Southwest 252 290 2,000 -120 Descending Jacksonville Center
12:29PM 30.6856 -81.8008 213° Southwest 247 284 2,000  Level Jacksonville Center
12:30PM 30.6608 -81.8203 214° Southwest 252 290 2,000 60 Level Jacksonville Center
12:31PM 30.6086 -81.8064 167° South 216 249 2,100  Climbing Jacksonville Center
12:31PM 30.6000 -81.8042 167° South 230 265 2,000 -180 Descending Jacksonville Center
12:31PM 30.5708 -81.7925 161° South 215 247 2,000 -600 Level Jacksonville Center
12:32PM 30.5308 -81.7592 144° Southeast 159 183 1,200 -780 Descending Jacksonville Center
12:33PM 30.5033 -81.7233 132° Southeast 141 162 500 -720 Descending Jacksonville Center
12:35PM 30.4941 -81.6879 107° East  Level Estimated
12:42PM 30.4941 -81.6879 192° South  Level Estimated